Triumph — WDC9555 — position and weather

sailwx.info

Track history (hours):
 
Tides and Currents Weather Stations Pressure Air Temp Water Temp Dewpoint Dewpoint Depression Visibility Wind Speed Wind Dir Waves Ship Positions

Triumph

Owner: WESTERN TOWBOAT CO, SEATTLE, WA. More information available from US FCC via Universal Licensing System and Coast Guard Vessel Documentation Center.

Last reported at 2016-May-05 17:33 UTC. Time now 2016-May-05 21:58 UTC.
Position N 51°08' W 127°49'.

Length 24 m; draft 3 m.

Type: Tow > 200 m length. MMSI: 367103880.

Date/timePositionNaut miles runAvg speedWind from/ knotsBaromVisibWave heightAir tempDewpointWater temp
2016-May-05 17:33N 51°08' W 127°49'6 5.7
2016-May-05 16:33N 51°04' W 127°42'6 6.1
2016-May-05 15:33N 50°60' W 127°35'7 7.0
2016-May-05 14:33N 50°56' W 127°26'7 7.4
2016-May-05 13:33N 50°51' W 127°18'28 6.5
2016-May-05 09:15N 50°35' W 126°42'4 5.0
2016-May-05 08:23N 50°31' W 126°38'5 6.4
2016-May-05 07:32N 50°30' W 126°29'42 6.9
2016-May-05 01:28N 50°20' W 125°26'7 7.6
2016-May-05 00:33N 50°14' W 125°23'7 6.8
2016-May-04 23:33N 50°07' W 125°20'5 5.3
2016-May-04 22:33N 50°03' W 125°15'3 3.3
2016-May-04 21:33N 50°00' W 125°12'2 2.3
2016-May-04 20:33N 49°58' W 125°10'0 0.4
2016-May-04 19:33N 49°58' W 125°10'1 0.6
2016-May-04 18:33N 49°58' W 125°10'2 2.3
2016-May-04 17:33N 49°56' W 125°07'4 4.1
2016-May-04 16:33N 49°53' W 125°02'4 4.4
2016-May-04 15:33N 49°51' W 124°57'5 4.7
2016-May-04 14:33N 49°48' W 124°51'5 5.3
2016-May-04 13:33N 49°44' W 124°45'6 5.8
2016-May-04 12:31N 49°41' W 124°37'6 6.1
2016-May-04 11:33N 49°37' W 124°30'6 5.7
2016-May-04 10:32N 49°34' W 124°23'6 5.9
2016-May-04 09:31N 49°32' W 124°14'7 6.3
2016-May-04 08:29N 49°28' W 124°06'6 6.6
2016-May-04 07:32N 49°25' W 123°58'7 6.9
2016-May-04 06:28N 49°21' W 123°48'6 6.9
2016-May-04 05:33N 49°17' W 123°41'7 6.8
2016-May-04 04:33N 49°12' W 123°33'6 6.4
2016-May-04 03:33N 49°07' W 123°27'6 6.3
2016-May-04 02:33N 49°03' W 123°19'6 6.0
2016-May-04 01:33N 48°59' W 123°13'6 5.6
2016-May-04 00:33N 48°55' W 123°06'7 6.7
2016-May-03 23:33N 48°51' W 122°58'7 7.0
2016-May-03 22:32N 48°47' W 122°50'7 7.0
2016-May-03 21:33N 48°42' W 122°43'8 8.1
2016-May-03 20:33N 48°34' W 122°45'8 7.6
2016-May-03 19:33N 48°26' W 122°44'13 6.3
2016-May-03 17:28N 48°13' W 122°48'17 7.4
2016-May-03 15:07N 47°58' W 122°35'5 8.3
2016-May-03 14:34N 47°56' W 122°29'8 7.9
2016-May-03 13:33N 47°48' W 122°26'7 7.4
2016-May-03 12:33N 47°41' W 122°27'7 6.9
2016-May-03 11:33N 47°34' W 122°27'7 7.1
2016-May-03 10:33N 47°27' W 122°31'7 6.6
2016-May-03 09:33N 47°21' W 122°33'5 4.6
2016-May-03 08:33N 47°16' W 122°33'2 2.3
2016-May-03 07:33N 47°14' W 122°35'2 2.2
2016-May-03 06:32N 47°12' W 122°36'4 1.4
2016-May-03 03:30N 47°08' W 122°39'2 0.4
2016-May-02 22:33N 47°10' W 122°38'9 8.6
2016-May-02 21:33N 47°18' W 122°32'9 8.8
2016-May-02 20:33N 47°26' W 122°31'9 9.3
2016-May-02 19:33N 47°35' W 122°26'3 3.1
2016-May-02 18:33N 47°38' W 122°25'2 2.3
2016-May-02 17:33N 47°40' W 122°23'1 1.1
2016-May-02 16:33N 47°39' W 122°22'0 0.0
2016-May-02 15:33N 47°39' W 122°22'0 0.0
2016-May-02 14:33N 47°39' W 122°22'0 0.0
2016-May-02 13:33N 47°39' W 122°22'0 0.0
2016-May-02 12:33N 47°39' W 122°22'0 0.0
2016-May-02 11:33N 47°39' W 122°22'0 0.0
2016-May-02 10:33N 47°39' W 122°22'0 0.0
2016-May-02 09:33N 47°39' W 122°22'0 0.0
2016-May-02 08:33N 47°39' W 122°22'0 0.0
2016-May-02 07:33N 47°39' W 122°22'0 0.0
2016-May-02 06:33N 47°39' W 122°22'0 0.0
2016-May-02 05:33N 47°39' W 122°22'0 0.0
2016-May-02 04:33N 47°39' W 122°22'0 0.0
2016-May-02 03:33N 47°39' W 122°22'0 0.0
2016-May-02 02:33N 47°39' W 122°22'0 0.0
2016-May-02 01:33N 47°39' W 122°22'0 0.0
2016-May-02 00:33N 47°39' W 122°22'0 0.0
2016-May-01 23:33N 47°39' W 122°22'0 0.0
2016-May-01 22:33N 47°39' W 122°22'0 0.0
2016-May-01 21:33N 47°39' W 122°22'0 0.0
2016-May-01 20:34N 47°39' W 122°22'0 0.0
2016-May-01 19:33N 47°39' W 122°22'0 0.0
2016-May-01 18:33N 47°39' W 122°22'0 0.0
2016-May-01 17:33N 47°39' W 122°22'0 0.0
2016-May-01 16:33N 47°39' W 122°22'0 0.0
2016-May-01 15:33N 47°39' W 122°22'0 0.0
2016-May-01 14:33N 47°39' W 122°22'0 0.0
2016-May-01 13:33N 47°39' W 122°22'0 0.0
2016-May-01 12:33N 47°39' W 122°22'0 0.0
2016-May-01 11:33N 47°39' W 122°22'0 0.0
2016-May-01 10:33N 47°39' W 122°22'0 0.0
2016-May-01 09:33N 47°39' W 122°22'0 0.0
2016-May-01 08:33N 47°39' W 122°22'0 0.0
2016-May-01 07:33N 47°39' W 122°22'0 0.0
2016-May-01 06:33N 47°39' W 122°22'0 0.0
2016-May-01 05:33N 47°39' W 122°22'0 0.0
2016-May-01 04:33N 47°39' W 122°22'0 0.0
2016-May-01 03:33N 47°39' W 122°22'0 0.0
2016-May-01 02:33N 47°39' W 122°22'0 0.0
2016-May-01 01:34N 47°39' W 122°22'0 0.0
2016-May-01 00:33N 47°39' W 122°22'0 0.0
2016-Apr-30 23:33N 47°39' W 122°22'0 0.0
2016-Apr-30 22:33N 47°39' W 122°22'0 0.0
2016-Apr-30 21:33N 47°39' W 122°22'0 0.0
2016-Apr-30 20:33N 47°39' W 122°22'0 0.0
2016-Apr-30 19:33N 47°39' W 122°22'0 0.0
2016-Apr-30 18:33N 47°39' W 122°22'0 0.0
2016-Apr-30 17:33N 47°39' W 122°22'0 0.0
2016-Apr-30 16:33N 47°39' W 122°22'0 0.0
2016-Apr-30 15:33N 47°39' W 122°22'0 0.0
2016-Apr-30 14:33N 47°39' W 122°22'0 0.0
2016-Apr-30 13:33N 47°39' W 122°22'0 0.0
2016-Apr-30 12:33N 47°39' W 122°22'0 0.0
2016-Apr-30 11:33N 47°39' W 122°22'0 0.0
2016-Apr-30 10:33N 47°39' W 122°22'0 0.0
2016-Apr-30 09:33N 47°39' W 122°22'0 0.0
2016-Apr-30 08:33N 47°39' W 122°22'0 0.0
2016-Apr-30 07:33N 47°39' W 122°22'0 0.0
2016-Apr-30 06:33N 47°39' W 122°22'0 0.0
2016-Apr-30 05:33N 47°39' W 122°22'0 0.0
2016-Apr-30 04:33N 47°39' W 122°22'0 0.0
2016-Apr-30 03:33N 47°39' W 122°22'0 0.0
2016-Apr-30 02:33N 47°39' W 122°22'0 0.0
2016-Apr-30 01:33N 47°39' W 122°22'0 0.0
2016-Apr-30 00:33N 47°39' W 122°22'0 0.0
2016-Apr-29 23:33N 47°39' W 122°22'0 0.0
2016-Apr-29 22:33N 47°39' W 122°22'0 0.0
2016-Apr-29 21:33N 47°39' W 122°22'0 0.0
2016-Apr-29 20:33N 47°39' W 122°22'  
2016-Apr-27 02:04N 47°39' W 122°22'0 0.0
2016-Apr-27 01:33N 47°39' W 122°22'3 2.9
2016-Apr-27 00:33N 47°40' W 122°26'8 8.0
2016-Apr-26 23:33N 47°33' W 122°21'3 2.8
2016-Apr-26 22:34N 47°36' W 122°22'6 6.4
2016-Apr-26 21:33N 47°41' W 122°28'7 7.3
2016-Apr-26 20:33N 47°48' W 122°28'7 6.7
2016-Apr-26 19:31N 47°55' W 122°31'5 5.2
2016-Apr-26 18:32N 47°58' W 122°37'16 5.1
2016-Apr-26 15:23N 48°12' W 122°48'9 7.4
2016-Apr-26 14:13N 48°21' W 122°46'5 7.0
2016-Apr-26 13:32N 48°26' W 122°44'7 7.1
2016-Apr-26 12:34N 48°32' W 122°45'7 7.1
2016-Apr-26 11:33N 48°39' W 122°44'7 7.0
2016-Apr-26 10:33N 48°45' W 122°49'8 7.7
2016-Apr-26 09:34N 48°50' W 122°59'8 8.2
2016-Apr-26 08:33N 48°54' W 123°09'8 8.2
2016-Apr-26 07:33N 49°00' W 123°18'6 6.2
2016-Apr-26 06:33N 49°06' W 123°18'5 5.1
2016-Apr-26 05:34N 49°07' W 123°10'5 5.3
2016-Apr-26 04:33N 49°09' W 123°03'0 0.4
2016-Apr-26 03:33N 49°09' W 123°02'0 0.0
2016-Apr-26 02:33N 49°09' W 123°02'0 0.0
2016-Apr-26 01:33N 49°09' W 123°02'0 0.0
2016-Apr-26 00:33N 49°09' W 123°02'0 0.0
2016-Apr-25 23:33N 49°09' W 123°02'0 0.0
2016-Apr-25 22:33N 49°09' W 123°02'0 0.0
2016-Apr-25 21:33N 49°09' W 123°02'0 0.0
2016-Apr-25 20:33N 49°09' W 123°02'0 0.0
2016-Apr-25 19:33N 49°09' W 123°02'0 0.0
2016-Apr-25 18:33N 49°09' W 123°02'0 0.0
2016-Apr-25 17:33N 49°09' W 123°02'  
Track history (hours):
 
Tides and Currents Weather Stations Pressure Air Temp Water Temp Dewpoint Dewpoint Depression Visibility Wind Speed Wind Dir Waves Ship Positions

Triumph

Owner: WESTERN TOWBOAT CO, SEATTLE, WA. More information available from US FCC via Universal Licensing System and Coast Guard Vessel Documentation Center.

Last reported at 2016-May-05 17:33 UTC. Time now 2016-May-05 21:58 UTC.
Position N 51°08' W 127°49'.

Length 24 m; draft 3 m.

Type: Tow > 200 m length. MMSI: 367103880.

Date/timePositionNaut miles runAvg speedWind from/ knotsBaromVisibWave heightAir tempDewpointWater temp
2016-May-05 17:33N 51°08' W 127°49'6 5.7
2016-May-05 16:33N 51°04' W 127°42'6 6.1
2016-May-05 15:33N 50°60' W 127°35'7 7.0
2016-May-05 14:33N 50°56' W 127°26'7 7.4
2016-May-05 13:33N 50°51' W 127°18'28 6.5
2016-May-05 09:15N 50°35' W 126°42'4 5.0
2016-May-05 08:23N 50°31' W 126°38'5 6.4
2016-May-05 07:32N 50°30' W 126°29'42 6.9
2016-May-05 01:28N 50°20' W 125°26'7 7.6
2016-May-05 00:33N 50°14' W 125°23'7 6.8
2016-May-04 23:33N 50°07' W 125°20'5 5.3
2016-May-04 22:33N 50°03' W 125°15'3 3.3
2016-May-04 21:33N 50°00' W 125°12'2 2.3
2016-May-04 20:33N 49°58' W 125°10'0 0.4
2016-May-04 19:33N 49°58' W 125°10'1 0.6
2016-May-04 18:33N 49°58' W 125°10'2 2.3
2016-May-04 17:33N 49°56' W 125°07'4 4.1
2016-May-04 16:33N 49°53' W 125°02'4 4.4
2016-May-04 15:33N 49°51' W 124°57'5 4.7
2016-May-04 14:33N 49°48' W 124°51'5 5.3
2016-May-04 13:33N 49°44' W 124°45'6 5.8
2016-May-04 12:31N 49°41' W 124°37'6 6.1
2016-May-04 11:33N 49°37' W 124°30'6 5.7
2016-May-04 10:32N 49°34' W 124°23'6 5.9
2016-May-04 09:31N 49°32' W 124°14'7 6.3
2016-May-04 08:29N 49°28' W 124°06'6 6.6
2016-May-04 07:32N 49°25' W 123°58'7 6.9
2016-May-04 06:28N 49°21' W 123°48'6 6.9
2016-May-04 05:33N 49°17' W 123°41'7 6.8
2016-May-04 04:33N 49°12' W 123°33'6 6.4
2016-May-04 03:33N 49°07' W 123°27'6 6.3
2016-May-04 02:33N 49°03' W 123°19'6 6.0
2016-May-04 01:33N 48°59' W 123°13'6 5.6
2016-May-04 00:33N 48°55' W 123°06'7 6.7
2016-May-03 23:33N 48°51' W 122°58'7 7.0
2016-May-03 22:32N 48°47' W 122°50'7 7.0
2016-May-03 21:33N 48°42' W 122°43'8 8.1
2016-May-03 20:33N 48°34' W 122°45'8 7.6
2016-May-03 19:33N 48°26' W 122°44'13 6.3
2016-May-03 17:28N 48°13' W 122°48'17 7.4
2016-May-03 15:07N 47°58' W 122°35'5 8.3
2016-May-03 14:34N 47°56' W 122°29'8 7.9
2016-May-03 13:33N 47°48' W 122°26'7 7.4
2016-May-03 12:33N 47°41' W 122°27'7 6.9
2016-May-03 11:33N 47°34' W 122°27'7 7.1
2016-May-03 10:33N 47°27' W 122°31'7 6.6
2016-May-03 09:33N 47°21' W 122°33'5 4.6
2016-May-03 08:33N 47°16' W 122°33'2 2.3
2016-May-03 07:33N 47°14' W 122°35'2 2.2
2016-May-03 06:32N 47°12' W 122°36'4 1.4
2016-May-03 03:30N 47°08' W 122°39'2 0.4
2016-May-02 22:33N 47°10' W 122°38'9 8.6
2016-May-02 21:33N 47°18' W 122°32'9 8.8
2016-May-02 20:33N 47°26' W 122°31'9 9.3
2016-May-02 19:33N 47°35' W 122°26'3 3.1
2016-May-02 18:33N 47°38' W 122°25'2 2.3
2016-May-02 17:33N 47°40' W 122°23'1 1.1
2016-May-02 16:33N 47°39' W 122°22'0 0.0
2016-May-02 15:33N 47°39' W 122°22'0 0.0
2016-May-02 14:33N 47°39' W 122°22'0 0.0
2016-May-02 13:33N 47°39' W 122°22'0 0.0
2016-May-02 12:33N 47°39' W 122°22'0 0.0
2016-May-02 11:33N 47°39' W 122°22'0 0.0
2016-May-02 10:33N 47°39' W 122°22'0 0.0
2016-May-02 09:33N 47°39' W 122°22'0 0.0
2016-May-02 08:33N 47°39' W 122°22'0 0.0
2016-May-02 07:33N 47°39' W 122°22'0 0.0
2016-May-02 06:33N 47°39' W 122°22'0 0.0
2016-May-02 05:33N 47°39' W 122°22'0 0.0
2016-May-02 04:33N 47°39' W 122°22'0 0.0
2016-May-02 03:33N 47°39' W 122°22'0 0.0
2016-May-02 02:33N 47°39' W 122°22'0 0.0
2016-May-02 01:33N 47°39' W 122°22'0 0.0
2016-May-02 00:33N 47°39' W 122°22'0 0.0
2016-May-01 23:33N 47°39' W 122°22'0 0.0
2016-May-01 22:33N 47°39' W 122°22'0 0.0
2016-May-01 21:33N 47°39' W 122°22'0 0.0
2016-May-01 20:34N 47°39' W 122°22'0 0.0
2016-May-01 19:33N 47°39' W 122°22'0 0.0
2016-May-01 18:33N 47°39' W 122°22'0 0.0
2016-May-01 17:33N 47°39' W 122°22'0 0.0
2016-May-01 16:33N 47°39' W 122°22'0 0.0
2016-May-01 15:33N 47°39' W 122°22'0 0.0
2016-May-01 14:33N 47°39' W 122°22'0 0.0
2016-May-01 13:33N 47°39' W 122°22'0 0.0
2016-May-01 12:33N 47°39' W 122°22'0 0.0
2016-May-01 11:33N 47°39' W 122°22'0 0.0
2016-May-01 10:33N 47°39' W 122°22'0 0.0
2016-May-01 09:33N 47°39' W 122°22'0 0.0
2016-May-01 08:33N 47°39' W 122°22'0 0.0
2016-May-01 07:33N 47°39' W 122°22'0 0.0
2016-May-01 06:33N 47°39' W 122°22'0 0.0
2016-May-01 05:33N 47°39' W 122°22'0 0.0
2016-May-01 04:33N 47°39' W 122°22'0 0.0
2016-May-01 03:33N 47°39' W 122°22'0 0.0
2016-May-01 02:33N 47°39' W 122°22'0 0.0
2016-May-01 01:34N 47°39' W 122°22'0 0.0
2016-May-01 00:33N 47°39' W 122°22'0 0.0
2016-Apr-30 23:33N 47°39' W 122°22'0 0.0
2016-Apr-30 22:33N 47°39' W 122°22'0 0.0
2016-Apr-30 21:33N 47°39' W 122°22'0 0.0
2016-Apr-30 20:33N 47°39' W 122°22'0 0.0
2016-Apr-30 19:33N 47°39' W 122°22'0 0.0
2016-Apr-30 18:33N 47°39' W 122°22'0 0.0
2016-Apr-30 17:33N 47°39' W 122°22'0 0.0
2016-Apr-30 16:33N 47°39' W 122°22'0 0.0
2016-Apr-30 15:33N 47°39' W 122°22'0 0.0
2016-Apr-30 14:33N 47°39' W 122°22'0 0.0
2016-Apr-30 13:33N 47°39' W 122°22'0 0.0
2016-Apr-30 12:33N 47°39' W 122°22'0 0.0
2016-Apr-30 11:33N 47°39' W 122°22'0 0.0
2016-Apr-30 10:33N 47°39' W 122°22'0 0.0
2016-Apr-30 09:33N 47°39' W 122°22'0 0.0
2016-Apr-30 08:33N 47°39' W 122°22'0 0.0
2016-Apr-30 07:33N 47°39' W 122°22'0 0.0
2016-Apr-30 06:33N 47°39' W 122°22'0 0.0
2016-Apr-30 05:33N 47°39' W 122°22'0 0.0
2016-Apr-30 04:33N 47°39' W 122°22'0 0.0
2016-Apr-30 03:33N 47°39' W 122°22'0 0.0
2016-Apr-30 02:33N 47°39' W 122°22'0 0.0
2016-Apr-30 01:33N 47°39' W 122°22'0 0.0
2016-Apr-30 00:33N 47°39' W 122°22'0 0.0
2016-Apr-29 23:33N 47°39' W 122°22'0 0.0
2016-Apr-29 22:33N 47°39' W 122°22'0 0.0
2016-Apr-29 21:33N 47°39' W 122°22'0 0.0
2016-Apr-29 20:33N 47°39' W 122°22'  
2016-Apr-27 02:04N 47°39' W 122°22'0 0.0
2016-Apr-27 01:33N 47°39' W 122°22'3 2.9
2016-Apr-27 00:33N 47°40' W 122°26'8 8.0
2016-Apr-26 23:33N 47°33' W 122°21'3 2.8
2016-Apr-26 22:34N 47°36' W 122°22'6 6.4
2016-Apr-26 21:33N 47°41' W 122°28'7 7.3
2016-Apr-26 20:33N 47°48' W 122°28'7 6.7
2016-Apr-26 19:31N 47°55' W 122°31'5 5.2
2016-Apr-26 18:32N 47°58' W 122°37'16 5.1
2016-Apr-26 15:23N 48°12' W 122°48'9 7.4
2016-Apr-26 14:13N 48°21' W 122°46'5 7.0
2016-Apr-26 13:32N 48°26' W 122°44'7 7.1
2016-Apr-26 12:34N 48°32' W 122°45'7 7.1
2016-Apr-26 11:33N 48°39' W 122°44'7 7.0
2016-Apr-26 10:33N 48°45' W 122°49'8 7.7
2016-Apr-26 09:34N 48°50' W 122°59'8 8.2
2016-Apr-26 08:33N 48°54' W 123°09'8 8.2
2016-Apr-26 07:33N 49°00' W 123°18'6 6.2
2016-Apr-26 06:33N 49°06' W 123°18'5 5.1
2016-Apr-26 05:34N 49°07' W 123°10'5 5.3
2016-Apr-26 04:33N 49°09' W 123°03'0 0.4
2016-Apr-26 03:33N 49°09' W 123°02'0 0.0
2016-Apr-26 02:33N 49°09' W 123°02'0 0.0
2016-Apr-26 01:33N 49°09' W 123°02'0 0.0
2016-Apr-26 00:33N 49°09' W 123°02'0 0.0
2016-Apr-25 23:33N 49°09' W 123°02'0 0.0
2016-Apr-25 22:33N 49°09' W 123°02'0 0.0
2016-Apr-25 21:33N 49°09' W 123°02'0 0.0
2016-Apr-25 20:33N 49°09' W 123°02'0 0.0
2016-Apr-25 19:33N 49°09' W 123°02'0 0.0
2016-Apr-25 18:33N 49°09' W 123°02'0 0.0
2016-Apr-25 17:33N 49°09' W 123°02'  

Dump ship's entire track history